sensor_id;sensor_type;location;lat;lon;timestamp;temperature;humidity
23556;DHT22;11956;53.184;8.578;2022-09-09T00:05:17;13.90;99.90
23556;DHT22;11956;53.184;8.578;2022-09-09T00:12:11;13.90;99.90
23556;DHT22;11956;53.184;8.578;2022-09-09T00:15:20;13.90;99.90
23556;DHT22;11956;53.184;8.578;2022-09-09T00:25:23;14.00;99.90
23556;DHT22;11956;53.184;8.578;2022-09-09T00:28:27;14.00;99.90
23556;DHT22;11956;53.184;8.578;2022-09-09T00:31:32;14.00;99.90
23556;DHT22;11956;53.184;8.578;2022-09-09T00:34:33;14.00;99.90
23556;DHT22;11956;53.184;8.578;2022-09-09T00:37:35;14.00;99.90
23556;DHT22;11956;53.184;8.578;2022-09-09T00:43:57;14.10;99.90
23556;DHT22;11956;53.184;8.578;2022-09-09T00:50:48;14.10;99.90
23556;DHT22;11956;53.184;8.578;2022-09-09T00:54:08;14.10;99.90
23556;DHT22;11956;53.184;8.578;2022-09-09T00:57:34;14.20;99.90
23556;DHT22;11956;53.184;8.578;2022-09-09T01:00:58;14.20;99.90
23556;DHT22;11956;53.184;8.578;2022-09-09T01:04:19;14.20;99.90
23556;DHT22;11956;53.184;8.578;2022-09-09T01:07:31;14.10;99.90
23556;DHT22;11956;53.184;8.578;2022-09-09T01:11:05;14.10;99.90
23556;DHT22;11956;53.184;8.578;2022-09-09T01:17:44;14.00;99.90
23556;DHT22;11956;53.184;8.578;2022-09-09T01:24:27;14.00;99.90
23556;DHT22;11956;53.184;8.578;2022-09-09T01:28:19;14.00;99.90
23556;DHT22;11956;53.184;8.578;2022-09-09T01:31:32;14.10;99.90
23556;DHT22;11956;53.184;8.578;2022-09-09T01:34:40;14.00;99.90
23556;DHT22;11956;53.184;8.578;2022-09-09T01:37:42;14.00;99.90
23556;DHT22;11956;53.184;8.578;2022-09-09T01:40:43;14.00;99.90
23556;DHT22;11956;53.184;8.578;2022-09-09T01:43:45;14.00;99.90
23556;DHT22;11956;53.184;8.578;2022-09-09T01:46:47;14.00;99.90
23556;DHT22;11956;53.184;8.578;2022-09-09T01:49:53;13.90;99.90
23556;DHT22;11956;53.184;8.578;2022-09-09T01:52:59;14.00;99.90
23556;DHT22;11956;53.184;8.578;2022-09-09T02:00:05;13.90;99.90
23556;DHT22;11956;53.184;8.578;2022-09-09T02:06:37;13.90;99.90
23556;DHT22;11956;53.184;8.578;2022-09-09T02:09:58;13.90;99.90
23556;DHT22;11956;53.184;8.578;2022-09-09T02:13:57;13.80;99.90
23556;DHT22;11956;53.184;8.578;2022-09-09T02:17:11;13.70;99.90
23556;DHT22;11956;53.184;8.578;2022-09-09T02:20:31;13.70;99.90
23556;DHT22;11956;53.184;8.578;2022-09-09T02:23:34;13.80;99.90
23556;DHT22;11956;53.184;8.578;2022-09-09T02:26:41;13.70;99.90
23556;DHT22;11956;53.184;8.578;2022-09-09T02:29:45;13.70;99.90
23556;DHT22;11956;53.184;8.578;2022-09-09T02:32:51;13.70;99.90
23556;DHT22;11956;53.184;8.578;2022-09-09T02:35:56;13.70;99.90
23556;DHT22;11956;53.184;8.578;2022-09-09T02:39:06;13.70;99.90
23556;DHT22;11956;53.184;8.578;2022-09-09T02:42:10;13.60;99.90
23556;DHT22;11956;53.184;8.578;2022-09-09T02:45:13;13.60;99.90
23556;DHT22;11956;53.184;8.578;2022-09-09T02:52:06;13.60;99.90
23556;DHT22;11956;53.184;8.578;2022-09-09T02:58:45;13.50;99.90
23556;DHT22;11956;53.184;8.578;2022-09-09T03:01:47;13.50;99.90
23556;DHT22;11956;53.184;8.578;2022-09-09T03:04:48;13.50;99.90
23556;DHT22;11956;53.184;8.578;2022-09-09T03:07:52;13.50;99.90
23556;DHT22;11956;53.184;8.578;2022-09-09T03:10:55;13.40;99.90
23556;DHT22;11956;53.184;8.578;2022-09-09T03:14:00;13.40;99.90
23556;DHT22;11956;53.184;8.578;2022-09-09T03:17:06;13.40;99.90
23556;DHT22;11956;53.184;8.578;2022-09-09T03:20:12;13.40;99.90
23556;DHT22;11956;53.184;8.578;2022-09-09T03:23:13;13.40;99.90
23556;DHT22;11956;53.184;8.578;2022-09-09T03:26:14;13.40;99.90
23556;DHT22;11956;53.184;8.578;2022-09-09T03:29:19;13.50;99.90
23556;DHT22;11956;53.184;8.578;2022-09-09T03:32:20;13.40;99.90
23556;DHT22;11956;53.184;8.578;2022-09-09T03:35:23;13.40;99.90
23556;DHT22;11956;53.184;8.578;2022-09-09T03:38:24;13.50;99.90
23556;DHT22;11956;53.184;8.578;2022-09-09T03:41:26;13.50;99.90
23556;DHT22;11956;53.184;8.578;2022-09-09T03:44:27;13.50;99.90
23556;DHT22;11956;53.184;8.578;2022-09-09T03:47:29;13.50;99.90
23556;DHT22;11956;53.184;8.578;2022-09-09T03:50:37;13.60;99.90
23556;DHT22;11956;53.184;8.578;2022-09-09T03:53:38;13.60;99.90
23556;DHT22;11956;53.184;8.578;2022-09-09T03:56:41;13.70;99.90
23556;DHT22;11956;53.184;8.578;2022-09-09T03:59:43;13.70;99.90
23556;DHT22;11956;53.184;8.578;2022-09-09T04:02:44;13.60;99.90
23556;DHT22;11956;53.184;8.578;2022-09-09T04:05:49;13.70;99.90
23556;DHT22;11956;53.184;8.578;2022-09-09T04:08:52;13.60;99.90
23556;DHT22;11956;53.184;8.578;2022-09-09T04:11:54;13.70;99.90
23556;DHT22;11956;53.184;8.578;2022-09-09T04:14:55;13.70;99.90
23556;DHT22;11956;53.184;8.578;2022-09-09T04:17:57;13.80;99.90
23556;DHT22;11956;53.184;8.578;2022-09-09T04:20:58;13.90;99.90
23556;DHT22;11956;53.184;8.578;2022-09-09T04:24:01;13.90;99.90
23556;DHT22;11956;53.184;8.578;2022-09-09T04:27:02;13.90;99.90
23556;DHT22;11956;53.184;8.578;2022-09-09T04:30:07;13.90;99.90
23556;DHT22;11956;53.184;8.578;2022-09-09T04:33:09;13.90;99.90
23556;DHT22;11956;53.184;8.578;2022-09-09T04:36:10;13.90;99.90
23556;DHT22;11956;53.184;8.578;2022-09-09T04:39:12;13.80;99.90
23556;DHT22;11956;53.184;8.578;2022-09-09T04:42:13;13.80;99.90
23556;DHT22;11956;53.184;8.578;2022-09-09T04:45:14;13.80;99.90
23556;DHT22;11956;53.184;8.578;2022-09-09T04:48:16;13.80;99.90
23556;DHT22;11956;53.184;8.578;2022-09-09T04:51:17;13.80;99.90
23556;DHT22;11956;53.184;8.578;2022-09-09T04:54:20;13.80;99.90
23556;DHT22;11956;53.184;8.578;2022-09-09T04:57:21;13.80;99.90
23556;DHT22;11956;53.184;8.578;2022-09-09T05:00:23;13.80;99.90
23556;DHT22;11956;53.184;8.578;2022-09-09T05:03:25;13.80;99.90
23556;DHT22;11956;53.184;8.578;2022-09-09T05:06:27;13.70;99.90
23556;DHT22;11956;53.184;8.578;2022-09-09T05:09:32;13.70;99.90
23556;DHT22;11956;53.184;8.578;2022-09-09T05:12:34;13.70;99.90
23556;DHT22;11956;53.184;8.578;2022-09-09T05:15:35;13.70;99.90
23556;DHT22;11956;53.184;8.578;2022-09-09T05:18:38;13.70;99.90
23556;DHT22;11956;53.184;8.578;2022-09-09T05:21:40;13.60;99.90
23556;DHT22;11956;53.184;8.578;2022-09-09T05:24:42;13.60;99.90
23556;DHT22;11956;53.184;8.578;2022-09-09T05:27:45;13.60;99.90
23556;DHT22;11956;53.184;8.578;2022-09-09T05:30:46;13.70;99.90
23556;DHT22;11956;53.184;8.578;2022-09-09T05:33:47;13.70;99.90
23556;DHT22;11956;53.184;8.578;2022-09-09T05:36:50;13.80;99.90
23556;DHT22;11956;53.184;8.578;2022-09-09T05:39:53;13.90;99.90
23556;DHT22;11956;53.184;8.578;2022-09-09T05:42:59;14.00;99.90
23556;DHT22;11956;53.184;8.578;2022-09-09T05:46:05;14.50;99.90
23556;DHT22;11956;53.184;8.578;2022-09-09T05:49:08;15.00;99.90
23556;DHT22;11956;53.184;8.578;2022-09-09T05:52:12;15.30;99.90
23556;DHT22;11956;53.184;8.578;2022-09-09T05:55:13;15.30;99.90
23556;DHT22;11956;53.184;8.578;2022-09-09T05:58:14;15.20;99.90
23556;DHT22;11956;53.184;8.578;2022-09-09T06:01:23;15.10;99.90
23556;DHT22;11956;53.184;8.578;2022-09-09T06:04:25;15.40;99.90
23556;DHT22;11956;53.184;8.578;2022-09-09T06:07:27;15.60;99.90
23556;DHT22;11956;53.184;8.578;2022-09-09T06:10:28;16.50;99.90
23556;DHT22;11956;53.184;8.578;2022-09-09T06:13:30;17.60;99.90
23556;DHT22;11956;53.184;8.578;2022-09-09T06:16:32;18.70;99.90
23556;DHT22;11956;53.184;8.578;2022-09-09T06:19:34;19.40;99.90
23556;DHT22;11956;53.184;8.578;2022-09-09T06:22:36;20.10;99.90
23556;DHT22;11956;53.184;8.578;2022-09-09T06:25:37;21.00;99.90
23556;DHT22;11956;53.184;8.578;2022-09-09T06:28:40;21.90;99.90
23556;DHT22;11956;53.184;8.578;2022-09-09T06:31:43;23.10;99.90
23556;DHT22;11956;53.184;8.578;2022-09-09T06:34:50;23.70;99.90
23556;DHT22;11956;53.184;8.578;2022-09-09T06:37:51;24.30;99.90
23556;DHT22;11956;53.184;8.578;2022-09-09T06:40:54;24.60;99.90
23556;DHT22;11956;53.184;8.578;2022-09-09T06:43:57;25.10;99.90
23556;DHT22;11956;53.184;8.578;2022-09-09T06:47:07;25.50;99.90
23556;DHT22;11956;53.184;8.578;2022-09-09T06:50:09;25.90;99.90
23556;DHT22;11956;53.184;8.578;2022-09-09T06:53:12;25.40;99.90
23556;DHT22;11956;53.184;8.578;2022-09-09T06:56:27;25.90;99.90
23556;DHT22;11956;53.184;8.578;2022-09-09T06:59:44;26.60;99.90
23556;DHT22;11956;53.184;8.578;2022-09-09T07:02:45;27.10;99.90
23556;DHT22;11956;53.184;8.578;2022-09-09T07:05:55;27.80;99.90
23556;DHT22;11956;53.184;8.578;2022-09-09T07:08:59;28.70;99.70
23556;DHT22;11956;53.184;8.578;2022-09-09T07:12:09;29.70;97.00
23556;DHT22;11956;53.184;8.578;2022-09-09T07:15:14;30.50;94.20
23556;DHT22;11956;53.184;8.578;2022-09-09T07:18:19;31.20;93.30
23556;DHT22;11956;53.184;8.578;2022-09-09T07:21:21;31.50;91.80
23556;DHT22;11956;53.184;8.578;2022-09-09T07:24:22;31.50;90.50
23556;DHT22;11956;53.184;8.578;2022-09-09T07:27:24;31.10;91.60
23556;DHT22;11956;53.184;8.578;2022-09-09T07:30:25;31.70;90.30
23556;DHT22;11956;53.184;8.578;2022-09-09T07:33:26;32.20;88.10
23556;DHT22;11956;53.184;8.578;2022-09-09T07:36:32;32.70;86.40
23556;DHT22;11956;53.184;8.578;2022-09-09T07:39:35;32.80;82.90
23556;DHT22;11956;53.184;8.578;2022-09-09T07:42:36;32.50;83.90
23556;DHT22;11956;53.184;8.578;2022-09-09T07:45:38;33.30;83.40
23556;DHT22;11956;53.184;8.578;2022-09-09T07:48:44;33.70;80.90
23556;DHT22;11956;53.184;8.578;2022-09-09T07:51:47;34.30;77.70
23556;DHT22;11956;53.184;8.578;2022-09-09T07:54:50;34.60;76.40
23556;DHT22;11956;53.184;8.578;2022-09-09T07:57:53;34.80;75.10
23556;DHT22;11956;53.184;8.578;2022-09-09T08:00:54;34.20;73.90
23556;DHT22;11956;53.184;8.578;2022-09-09T08:03:58;32.60;77.50
23556;DHT22;11956;53.184;8.578;2022-09-09T08:07:01;32.90;77.90
23556;DHT22;11956;53.184;8.578;2022-09-09T08:10:08;30.80;81.30
23556;DHT22;11956;53.184;8.578;2022-09-09T08:13:11;28.80;88.30
23556;DHT22;11956;53.184;8.578;2022-09-09T08:16:17;28.40;91.10
23556;DHT22;11956;53.184;8.578;2022-09-09T08:19:22;28.40;90.90
23556;DHT22;11956;53.184;8.578;2022-09-09T08:22:24;28.10;91.20
23556;DHT22;11956;53.184;8.578;2022-09-09T08:25:26;28.20;91.10
23556;DHT22;11956;53.184;8.578;2022-09-09T08:28:28;27.90;92.00
23556;DHT22;11956;53.184;8.578;2022-09-09T08:31:32;28.00;92.00
23556;DHT22;11956;53.184;8.578;2022-09-09T08:34:35;28.30;92.00
23556;DHT22;11956;53.184;8.578;2022-09-09T08:37:41;29.50;90.90
23556;DHT22;11956;53.184;8.578;2022-09-09T08:40:46;30.20;89.30
23556;DHT22;11956;53.184;8.578;2022-09-09T08:43:51;28.60;90.70
23556;DHT22;11956;53.184;8.578;2022-09-09T08:47:39;26.50;94.40
23556;DHT22;11956;53.184;8.578;2022-09-09T08:51:05;25.30;97.60
23556;DHT22;11956;53.184;8.578;2022-09-09T08:54:11;24.40;99.70
23556;DHT22;11956;53.184;8.578;2022-09-09T08:57:20;23.40;99.90
23556;DHT22;11956;53.184;8.578;2022-09-09T09:00:35;23.30;99.90
23556;DHT22;11956;53.184;8.578;2022-09-09T09:10:58;23.20;99.90
23556;DHT22;11956;53.184;8.578;2022-09-09T09:14:04;23.00;99.90
23556;DHT22;11956;53.184;8.578;2022-09-09T09:17:14;23.30;99.90
23556;DHT22;11956;53.184;8.578;2022-09-09T09:20:23;23.70;99.90
23556;DHT22;11956;53.184;8.578;2022-09-09T09:23:58;23.60;99.90
23556;DHT22;11956;53.184;8.578;2022-09-09T09:27:12;23.20;99.90
23556;DHT22;11956;53.184;8.578;2022-09-09T09:30:28;23.40;99.90
23556;DHT22;11956;53.184;8.578;2022-09-09T09:33:48;23.30;99.90
23556;DHT22;11956;53.184;8.578;2022-09-09T09:36:54;23.50;99.90
23556;DHT22;11956;53.184;8.578;2022-09-09T09:40:11;23.40;99.90
23556;DHT22;11956;53.184;8.578;2022-09-09T09:43:21;23.00;99.90
23556;DHT22;11956;53.184;8.578;2022-09-09T09:46:26;23.10;99.90
23556;DHT22;11956;53.184;8.578;2022-09-09T09:49:33;23.50;99.90
23556;DHT22;11956;53.184;8.578;2022-09-09T09:52:34;24.30;99.90
23556;DHT22;11956;53.184;8.578;2022-09-09T09:55:50;23.80;99.90
23556;DHT22;11956;53.184;8.578;2022-09-09T09:58:56;23.50;99.90
23556;DHT22;11956;53.184;8.578;2022-09-09T10:02:24;23.40;99.90
23556;DHT22;11956;53.184;8.578;2022-09-09T10:05:38;23.00;99.90
23556;DHT22;11956;53.184;8.578;2022-09-09T10:08:46;22.90;99.90
23556;DHT22;11956;53.184;8.578;2022-09-09T10:15:30;22.10;99.90
23556;DHT22;11956;53.184;8.578;2022-09-09T10:25:42;25.90;99.90
23556;DHT22;11956;53.184;8.578;2022-09-09T10:39:39;23.90;99.90
23556;DHT22;11956;53.184;8.578;2022-09-09T10:42:41;24.10;99.90
23556;DHT22;11956;53.184;8.578;2022-09-09T10:55:26;23.70;99.90
23556;DHT22;11956;53.184;8.578;2022-09-09T10:59:02;23.90;99.90
23556;DHT22;11956;53.184;8.578;2022-09-09T11:02:19;23.30;99.90
23556;DHT22;11956;53.184;8.578;2022-09-09T11:05:44;23.10;99.90
23556;DHT22;11956;53.184;8.578;2022-09-09T11:08:48;23.20;99.90
23556;DHT22;11956;53.184;8.578;2022-09-09T11:11:55;22.30;99.90
23556;DHT22;11956;53.184;8.578;2022-09-09T11:18:04;22.10;99.90
23556;DHT22;11956;53.184;8.578;2022-09-09T11:21:16;22.10;99.90
23556;DHT22;11956;53.184;8.578;2022-09-09T11:24:28;21.70;99.90
23556;DHT22;11956;53.184;8.578;2022-09-09T11:28:35;21.60;99.90
23556;DHT22;11956;53.184;8.578;2022-09-09T11:38:45;20.90;99.90
23556;DHT22;11956;53.184;8.578;2022-09-09T11:41:53;20.70;99.90
23556;DHT22;11956;53.184;8.578;2022-09-09T11:44:54;20.70;99.90
23556;DHT22;11956;53.184;8.578;2022-09-09T11:47:59;21.10;99.90
23556;DHT22;11956;53.184;8.578;2022-09-09T11:51:07;21.50;99.90
23556;DHT22;11956;53.184;8.578;2022-09-09T11:54:29;21.70;99.90
23556;DHT22;11956;53.184;8.578;2022-09-09T11:57:35;22.00;99.90
23556;DHT22;11956;53.184;8.578;2022-09-09T12:03:50;22.80;99.90
23556;DHT22;11956;53.184;8.578;2022-09-09T12:06:54;22.70;99.90
23556;DHT22;11956;53.184;8.578;2022-09-09T12:10:29;22.40;99.90
23556;DHT22;11956;53.184;8.578;2022-09-09T12:13:35;21.80;99.90
23556;DHT22;11956;53.184;8.578;2022-09-09T12:16:37;21.50;99.90
23556;DHT22;11956;53.184;8.578;2022-09-09T12:19:39;21.10;99.90
23556;DHT22;11956;53.184;8.578;2022-09-09T12:22:59;21.00;99.90
23556;DHT22;11956;53.184;8.578;2022-09-09T12:29:43;20.70;99.90
23556;DHT22;11956;53.184;8.578;2022-09-09T12:33:10;20.60;99.90
23556;DHT22;11956;53.184;8.578;2022-09-09T12:36:16;20.60;99.90
23556;DHT22;11956;53.184;8.578;2022-09-09T12:39:30;20.50;99.90
23556;DHT22;11956;53.184;8.578;2022-09-09T12:42:39;20.20;99.90
23556;DHT22;11956;53.184;8.578;2022-09-09T12:45:41;20.00;99.90
23556;DHT22;11956;53.184;8.578;2022-09-09T12:48:42;19.60;99.90
23556;DHT22;11956;53.184;8.578;2022-09-09T12:51:46;19.60;99.90
23556;DHT22;11956;53.184;8.578;2022-09-09T12:54:47;19.30;99.90
23556;DHT22;11956;53.184;8.578;2022-09-09T12:57:49;19.30;99.90
23556;DHT22;11956;53.184;8.578;2022-09-09T13:00:55;19.00;99.90
23556;DHT22;11956;53.184;8.578;2022-09-09T13:04:00;18.90;99.90
23556;DHT22;11956;53.184;8.578;2022-09-09T13:07:07;18.90;99.90
23556;DHT22;11956;53.184;8.578;2022-09-09T13:10:12;19.00;99.90
23556;DHT22;11956;53.184;8.578;2022-09-09T13:13:14;18.90;99.90
23556;DHT22;11956;53.184;8.578;2022-09-09T13:16:31;18.60;99.90
23556;DHT22;11956;53.184;8.578;2022-09-09T13:19:37;18.20;99.90
23556;DHT22;11956;53.184;8.578;2022-09-09T13:22:40;17.60;99.90
23556;DHT22;11956;53.184;8.578;2022-09-09T13:25:41;17.00;99.90
23556;DHT22;11956;53.184;8.578;2022-09-09T13:28:44;16.70;99.90
23556;DHT22;11956;53.184;8.578;2022-09-09T13:31:46;16.50;99.90
23556;DHT22;11956;53.184;8.578;2022-09-09T13:37:58;16.10;99.90
23556;DHT22;11956;53.184;8.578;2022-09-09T13:41:06;15.80;99.90
23556;DHT22;11956;53.184;8.578;2022-09-09T13:44:40;15.50;99.90
23556;DHT22;11956;53.184;8.578;2022-09-09T13:47:40;15.30;99.90
23556;DHT22;11956;53.184;8.578;2022-09-09T13:50:42;15.20;99.90
23556;DHT22;11956;53.184;8.578;2022-09-09T13:54:01;15.30;99.90
23556;DHT22;11956;53.184;8.578;2022-09-09T13:57:02;15.40;99.90
23556;DHT22;11956;53.184;8.578;2022-09-09T14:00:06;15.40;99.90
23556;DHT22;11956;53.184;8.578;2022-09-09T14:03:10;15.60;99.90
23556;DHT22;11956;53.184;8.578;2022-09-09T14:06:11;15.70;99.90
23556;DHT22;11956;53.184;8.578;2022-09-09T14:09:14;15.80;99.90
23556;DHT22;11956;53.184;8.578;2022-09-09T14:12:16;16.00;99.90
23556;DHT22;11956;53.184;8.578;2022-09-09T14:15:18;16.00;99.90
23556;DHT22;11956;53.184;8.578;2022-09-09T14:18:20;16.20;99.90
23556;DHT22;11956;53.184;8.578;2022-09-09T14:21:24;16.20;99.90
23556;DHT22;11956;53.184;8.578;2022-09-09T14:24:26;16.30;99.90
23556;DHT22;11956;53.184;8.578;2022-09-09T14:27:28;16.30;99.90
23556;DHT22;11956;53.184;8.578;2022-09-09T14:30:30;16.30;99.90
23556;DHT22;11956;53.184;8.578;2022-09-09T14:33:31;16.30;99.90
23556;DHT22;11956;53.184;8.578;2022-09-09T14:36:32;16.40;99.90
23556;DHT22;11956;53.184;8.578;2022-09-09T14:39:33;16.50;99.90
23556;DHT22;11956;53.184;8.578;2022-09-09T14:42:34;16.50;99.90
23556;DHT22;11956;53.184;8.578;2022-09-09T14:45:35;16.50;99.90
23556;DHT22;11956;53.184;8.578;2022-09-09T14:48:37;16.40;99.90
23556;DHT22;11956;53.184;8.578;2022-09-09T14:51:41;16.40;99.90
23556;DHT22;11956;53.184;8.578;2022-09-09T14:54:42;16.50;99.90
23556;DHT22;11956;53.184;8.578;2022-09-09T14:57:43;16.50;99.90
23556;DHT22;11956;53.184;8.578;2022-09-09T15:00:43;16.60;99.90
23556;DHT22;11956;53.184;8.578;2022-09-09T15:04:14;16.50;99.90
23556;DHT22;11956;53.184;8.578;2022-09-09T15:07:16;16.60;99.90
23556;DHT22;11956;53.184;8.578;2022-09-09T15:10:17;16.60;99.90
23556;DHT22;11956;53.184;8.578;2022-09-09T15:13:18;16.70;99.90
23556;DHT22;11956;53.184;8.578;2022-09-09T15:16:20;16.80;99.90
23556;DHT22;11956;53.184;8.578;2022-09-09T15:19:24;16.80;99.90
23556;DHT22;11956;53.184;8.578;2022-09-09T15:22:25;16.90;99.90
23556;DHT22;11956;53.184;8.578;2022-09-09T15:25:26;16.80;99.90
23556;DHT22;11956;53.184;8.578;2022-09-09T15:28:27;16.80;99.90
23556;DHT22;11956;53.184;8.578;2022-09-09T15:31:30;16.80;99.90
23556;DHT22;11956;53.184;8.578;2022-09-09T15:34:31;17.00;99.90
23556;DHT22;11956;53.184;8.578;2022-09-09T15:37:32;17.00;99.90
23556;DHT22;11956;53.184;8.578;2022-09-09T15:40:33;17.00;99.90
23556;DHT22;11956;53.184;8.578;2022-09-09T15:43:34;16.90;99.90
23556;DHT22;11956;53.184;8.578;2022-09-09T15:46:40;16.80;99.90
23556;DHT22;11956;53.184;8.578;2022-09-09T15:49:45;16.90;99.90
23556;DHT22;11956;53.184;8.578;2022-09-09T15:52:45;16.90;99.90
23556;DHT22;11956;53.184;8.578;2022-09-09T15:55:46;16.90;99.90
23556;DHT22;11956;53.184;8.578;2022-09-09T15:58:47;16.80;99.90
23556;DHT22;11956;53.184;8.578;2022-09-09T16:01:48;16.90;99.90
23556;DHT22;11956;53.184;8.578;2022-09-09T16:04:51;16.80;99.90
23556;DHT22;11956;53.184;8.578;2022-09-09T16:07:52;16.80;99.90
23556;DHT22;11956;53.184;8.578;2022-09-09T16:10:53;17.00;99.90
23556;DHT22;11956;53.184;8.578;2022-09-09T16:13:55;17.10;99.90
23556;DHT22;11956;53.184;8.578;2022-09-09T16:16:56;17.20;99.90
23556;DHT22;11956;53.184;8.578;2022-09-09T16:19:57;17.20;99.90
23556;DHT22;11956;53.184;8.578;2022-09-09T16:22:58;16.90;99.90
23556;DHT22;11956;53.184;8.578;2022-09-09T16:25:59;16.80;99.90
23556;DHT22;11956;53.184;8.578;2022-09-09T16:29:00;16.90;99.90
23556;DHT22;11956;53.184;8.578;2022-09-09T16:32:03;17.00;99.90
23556;DHT22;11956;53.184;8.578;2022-09-09T16:35:04;16.90;99.90
23556;DHT22;11956;53.184;8.578;2022-09-09T16:38:06;16.90;99.90
23556;DHT22;11956;53.184;8.578;2022-09-09T16:41:11;16.80;99.90
23556;DHT22;11956;53.184;8.578;2022-09-09T16:44:14;16.90;99.90
23556;DHT22;11956;53.184;8.578;2022-09-09T16:47:17;16.70;99.90
23556;DHT22;11956;53.184;8.578;2022-09-09T16:50:18;16.60;99.90
23556;DHT22;11956;53.184;8.578;2022-09-09T16:53:20;16.50;99.90
23556;DHT22;11956;53.184;8.578;2022-09-09T16:56:25;16.40;99.90
23556;DHT22;11956;53.184;8.578;2022-09-09T16:59:27;16.40;99.90
23556;DHT22;11956;53.184;8.578;2022-09-09T17:02:28;16.30;99.90
23556;DHT22;11956;53.184;8.578;2022-09-09T17:05:29;16.40;99.90
23556;DHT22;11956;53.184;8.578;2022-09-09T17:08:30;16.40;99.90
23556;DHT22;11956;53.184;8.578;2022-09-09T17:11:31;16.30;99.90
23556;DHT22;11956;53.184;8.578;2022-09-09T17:14:32;16.40;99.90
23556;DHT22;11956;53.184;8.578;2022-09-09T17:17:33;16.40;99.90
23556;DHT22;11956;53.184;8.578;2022-09-09T17:20:39;16.30;99.90
23556;DHT22;11956;53.184;8.578;2022-09-09T17:23:41;16.30;99.90
23556;DHT22;11956;53.184;8.578;2022-09-09T17:26:43;16.20;99.90
23556;DHT22;11956;53.184;8.578;2022-09-09T17:29:45;16.20;99.90
23556;DHT22;11956;53.184;8.578;2022-09-09T17:32:47;16.20;99.90
23556;DHT22;11956;53.184;8.578;2022-09-09T17:35:48;16.20;99.90
23556;DHT22;11956;53.184;8.578;2022-09-09T17:38:49;16.20;99.90
23556;DHT22;11956;53.184;8.578;2022-09-09T17:41:51;16.10;99.90
23556;DHT22;11956;53.184;8.578;2022-09-09T17:44:53;16.10;99.90
23556;DHT22;11956;53.184;8.578;2022-09-09T17:47:54;16.00;99.90
23556;DHT22;11956;53.184;8.578;2022-09-09T17:50:59;15.90;99.90
23556;DHT22;11956;53.184;8.578;2022-09-09T17:54:03;15.70;99.90
23556;DHT22;11956;53.184;8.578;2022-09-09T17:57:08;15.50;99.90
23556;DHT22;11956;53.184;8.578;2022-09-09T18:00:09;15.40;99.90
23556;DHT22;11956;53.184;8.578;2022-09-09T18:03:13;15.10;99.90
23556;DHT22;11956;53.184;8.578;2022-09-09T18:06:17;15.10;99.90
23556;DHT22;11956;53.184;8.578;2022-09-09T18:09:23;15.00;99.90
23556;DHT22;11956;53.184;8.578;2022-09-09T18:12:25;14.90;99.90
23556;DHT22;11956;53.184;8.578;2022-09-09T18:15:27;14.70;99.90
23556;DHT22;11956;53.184;8.578;2022-09-09T18:18:28;14.70;99.90
23556;DHT22;11956;53.184;8.578;2022-09-09T18:21:30;14.80;99.90
23556;DHT22;11956;53.184;8.578;2022-09-09T18:24:35;14.70;99.90
23556;DHT22;11956;53.184;8.578;2022-09-09T18:27:36;14.80;99.90
23556;DHT22;11956;53.184;8.578;2022-09-09T18:30:40;14.80;99.90
23556;DHT22;11956;53.184;8.578;2022-09-09T18:33:43;14.90;99.90
23556;DHT22;11956;53.184;8.578;2022-09-09T18:36:47;14.90;99.90
23556;DHT22;11956;53.184;8.578;2022-09-09T18:39:53;14.90;99.90
23556;DHT22;11956;53.184;8.578;2022-09-09T18:42:54;14.90;99.90
23556;DHT22;11956;53.184;8.578;2022-09-09T18:45:54;15.00;99.90
23556;DHT22;11956;53.184;8.578;2022-09-09T18:48:56;15.00;99.90
23556;DHT22;11956;53.184;8.578;2022-09-09T18:51:57;15.00;99.90
23556;DHT22;11956;53.184;8.578;2022-09-09T18:54:58;15.00;99.90
23556;DHT22;11956;53.184;8.578;2022-09-09T18:57:59;15.00;99.90
23556;DHT22;11956;53.184;8.578;2022-09-09T19:01:01;15.10;99.90
23556;DHT22;11956;53.184;8.578;2022-09-09T19:04:05;15.10;99.90
23556;DHT22;11956;53.184;8.578;2022-09-09T19:07:07;15.10;99.90
23556;DHT22;11956;53.184;8.578;2022-09-09T19:10:08;15.10;99.90
23556;DHT22;11956;53.184;8.578;2022-09-09T19:13:09;15.00;99.90
23556;DHT22;11956;53.184;8.578;2022-09-09T19:16:14;15.00;99.90
23556;DHT22;11956;53.184;8.578;2022-09-09T19:19:18;14.90;99.90
23556;DHT22;11956;53.184;8.578;2022-09-09T19:22:23;15.00;99.90
23556;DHT22;11956;53.184;8.578;2022-09-09T19:25:25;15.00;99.90
23556;DHT22;11956;53.184;8.578;2022-09-09T19:28:26;14.90;99.90
23556;DHT22;11956;53.184;8.578;2022-09-09T19:31:27;14.90;99.90
23556;DHT22;11956;53.184;8.578;2022-09-09T19:34:29;14.90;99.90
23556;DHT22;11956;53.184;8.578;2022-09-09T19:37:31;14.80;99.90
23556;DHT22;11956;53.184;8.578;2022-09-09T19:40:34;14.80;99.90
23556;DHT22;11956;53.184;8.578;2022-09-09T19:43:36;14.80;99.90
23556;DHT22;11956;53.184;8.578;2022-09-09T19:46:38;14.80;99.90
23556;DHT22;11956;53.184;8.578;2022-09-09T19:49:40;14.80;99.90
23556;DHT22;11956;53.184;8.578;2022-09-09T19:52:40;14.70;99.90
23556;DHT22;11956;53.184;8.578;2022-09-09T19:55:42;14.70;99.90
23556;DHT22;11956;53.184;8.578;2022-09-09T19:58:45;14.70;99.90
23556;DHT22;11956;53.184;8.578;2022-09-09T20:01:46;14.70;99.90
23556;DHT22;11956;53.184;8.578;2022-09-09T20:04:47;14.70;99.90
23556;DHT22;11956;53.184;8.578;2022-09-09T20:07:48;14.60;99.90
23556;DHT22;11956;53.184;8.578;2022-09-09T20:10:50;14.50;99.90
23556;DHT22;11956;53.184;8.578;2022-09-09T20:13:53;14.60;99.90
23556;DHT22;11956;53.184;8.578;2022-09-09T20:16:54;14.50;99.90
23556;DHT22;11956;53.184;8.578;2022-09-09T20:19:55;14.50;99.90
23556;DHT22;11956;53.184;8.578;2022-09-09T20:22:56;14.50;99.90
23556;DHT22;11956;53.184;8.578;2022-09-09T20:26:00;14.40;99.90
23556;DHT22;11956;53.184;8.578;2022-09-09T20:29:08;14.40;99.90
23556;DHT22;11956;53.184;8.578;2022-09-09T20:32:11;14.50;99.90
23556;DHT22;11956;53.184;8.578;2022-09-09T20:35:12;14.40;99.90
23556;DHT22;11956;53.184;8.578;2022-09-09T20:38:13;14.50;99.90
23556;DHT22;11956;53.184;8.578;2022-09-09T20:41:15;14.50;99.90
23556;DHT22;11956;53.184;8.578;2022-09-09T20:44:22;14.50;99.90
23556;DHT22;11956;53.184;8.578;2022-09-09T20:47:23;14.50;99.90
23556;DHT22;11956;53.184;8.578;2022-09-09T20:50:24;14.50;99.90
23556;DHT22;11956;53.184;8.578;2022-09-09T20:53:25;14.50;99.90
23556;DHT22;11956;53.184;8.578;2022-09-09T20:56:29;14.50;99.90
23556;DHT22;11956;53.184;8.578;2022-09-09T20:59:34;14.50;99.90
23556;DHT22;11956;53.184;8.578;2022-09-09T21:02:35;14.50;99.90
23556;DHT22;11956;53.184;8.578;2022-09-09T21:05:35;14.50;99.90
23556;DHT22;11956;53.184;8.578;2022-09-09T21:08:38;14.50;99.90
23556;DHT22;11956;53.184;8.578;2022-09-09T21:11:40;14.60;99.90